Crystal Coast — WDC9132 — position and weather

sailwx.info

Track history (hours):
 
Tides and Currents Weather Stations Pressure Air Temp Water Temp Dewpoint Dewpoint Depression Visibility Wind Speed Wind Dir Waves Ship Positions

Crystal Coast

Owner: Dann Marine Towing, LC, Chesapeake City, MD. More information available from US FCC via Universal Licensing System and Coast Guard Vessel Documentation Center.

Last reported at 2018-Jun-17 21:59 UTC. Time now 2018-Jun-18 01:39 UTC.
Position N 39°32' W 075°44'.

Length 22 m; draft 2.9 m.

Type: Tug. MMSI: 36797970.

Date/timePositionNaut miles runAvg speedWind from/ knotsBaromVisibWave heightAir tempDewpointWater temp
2018-Jun-17 21:59N 39°32' W 075°44'4 9.0
2018-Jun-17 21:30N 39°33' W 075°39'4 8.6
2018-Jun-17 21:00N 39°34' W 075°33'4 7.4
2018-Jun-17 20:30N 39°30' W 075°34'4 7.6
2018-Jun-17 20:00N 39°26' W 075°33'16 2.7
2018-Jun-17 13:58N 39°11' W 075°24'0 0.0
2018-Jun-17 13:29N 39°11' W 075°24'0 0.0
2018-Jun-17 13:01N 39°11' W 075°24'0 0.0
2018-Jun-17 12:30N 39°11' W 075°24'0 0.0
2018-Jun-17 12:00N 39°11' W 075°24'0 0.0
2018-Jun-17 11:30N 39°11' W 075°24'0 0.0
2018-Jun-17 10:59N 39°11' W 075°24'5 0.6
2018-Jun-17 02:33N 39°15' W 075°21'0 3.8
2018-Jun-17 02:30N 39°15' W 075°21'1 2.7
2018-Jun-17 02:00N 39°16' W 075°22'2 3.2
2018-Jun-17 01:30N 39°18' W 075°23'2 3.5
2018-Jun-17 01:00N 39°19' W 075°24'4 7.5
2018-Jun-17 00:30N 39°22' W 075°28'5 9.0
2018-Jun-17 00:00N 39°25' W 075°31'4 8.4
2018-Jun-16 23:30N 39°29' W 075°34'5 8.9
2018-Jun-16 23:00N 39°33' W 075°33'3 6.8
2018-Jun-16 22:30N 39°33' W 075°37'4 6.3
2018-Jun-16 21:56N 39°33' W 075°42'37 5.8
2018-Jun-16 15:38N 39°13' W 076°22'1 7.0
2018-Jun-16 15:30N 39°12' W 076°23'4 6.4
2018-Jun-16 14:49N 39°11' W 076°29'2 6.9
2018-Jun-16 14:30N 39°12' W 076°31'3 6.9
2018-Jun-16 14:00N 39°15' W 076°34'0 0.6
2018-Jun-16 13:29N 39°15' W 076°34'0 0.0
2018-Jun-16 13:00N 39°15' W 076°34'0 0.0
2018-Jun-16 12:30N 39°15' W 076°34'0 0.6
2018-Jun-16 12:00N 39°15' W 076°34'0 0.0
2018-Jun-16 11:30N 39°15' W 076°34'0 0.0
2018-Jun-16 11:00N 39°15' W 076°34'0 0.6
2018-Jun-16 10:30N 39°15' W 076°34'0 0.0
2018-Jun-16 10:00N 39°15' W 076°34'0 0.0
2018-Jun-16 09:30N 39°15' W 076°34'0 0.0
2018-Jun-16 09:00N 39°15' W 076°34'0 0.0
2018-Jun-16 08:30N 39°15' W 076°34'0 0.0
2018-Jun-16 08:00N 39°15' W 076°34'0 0.0
2018-Jun-16 07:30N 39°15' W 076°34'0 0.0
2018-Jun-16 07:00N 39°15' W 076°34'0 0.0
2018-Jun-16 06:30N 39°15' W 076°34'0 0.6
2018-Jun-16 06:00N 39°15' W 076°34'0 0.0
2018-Jun-16 05:30N 39°15' W 076°34'0 0.0
2018-Jun-16 05:00N 39°15' W 076°34'0 0.0
2018-Jun-16 04:30N 39°15' W 076°34'1 1.2
2018-Jun-16 04:00N 39°15' W 076°33'4 7.7
2018-Jun-16 03:30N 39°12' W 076°30'4 7.8
2018-Jun-16 03:00N 39°10' W 076°26'4 7.8
2018-Jun-16 02:30N 39°07' W 076°24'4 7.9
2018-Jun-16 01:59N 39°03' W 076°23'4 7.7
2018-Jun-16 01:29N 38°59' W 076°23'4 8.0
2018-Jun-16 01:00N 38°55' W 076°24'4 7.6
2018-Jun-16 00:30N 38°51' W 076°26'43 7.7
2018-Jun-15 18:57N 38°09' W 076°17'5 8.0
2018-Jun-15 18:20N 38°04' W 076°17'2 7.1
2018-Jun-15 17:59N 38°02' W 076°18'3 6.6
2018-Jun-15 17:29N 38°02' W 076°23'4 7.7
2018-Jun-15 16:55N 38°04' W 076°27'46 5.4
2018-Jun-15 08:25N 38°37' W 077°09'3 6.9
2018-Jun-15 07:59N 38°40' W 077°08'4 7.7
2018-Jun-15 07:30N 38°42' W 077°04'4 7.8
2018-Jun-15 06:57N 38°46' W 077°02'5 8.9
2018-Jun-15 06:24N 38°51' W 077°01'1 3.7
2018-Jun-15 06:00N 38°52' W 077°00'0 0.0
2018-Jun-15 05:26N 38°52' W 077°00'0 0.0
2018-Jun-15 04:57N 38°52' W 077°00'0 0.0
2018-Jun-15 04:28N 38°52' W 077°00'0 0.0
2018-Jun-15 03:59N 38°52' W 077°00'0 0.0
2018-Jun-15 03:27N 38°52' W 077°00'0 0.0
2018-Jun-15 03:00N 38°52' W 077°00'0 0.0
2018-Jun-15 02:25N 38°52' W 077°00'0 0.0
2018-Jun-15 02:00N 38°52' W 077°00'0 0.0
2018-Jun-15 01:30N 38°52' W 077°00'0 0.0
2018-Jun-15 00:58N 38°52' W 077°00'0 0.0
2018-Jun-15 00:29N 38°52' W 077°00'0 0.0
2018-Jun-14 23:59N 38°52' W 077°00'0 0.0
2018-Jun-14 23:28N 38°52' W 077°00'0 0.0
2018-Jun-14 23:00N 38°52' W 077°00'0 0.0
2018-Jun-14 22:26N 38°52' W 077°00'0 0.0
2018-Jun-14 21:59N 38°52' W 077°00'0 0.0
2018-Jun-14 21:30N 38°52' W 077°00'0 0.0
2018-Jun-14 20:58N 38°52' W 077°00'0 0.0
2018-Jun-14 20:27N 38°52' W 077°00'0 0.0
2018-Jun-14 19:57N 38°52' W 077°00'0 0.0
2018-Jun-14 19:28N 38°52' W 077°00'0 0.0
2018-Jun-14 18:58N 38°52' W 077°00'0 0.0
2018-Jun-14 18:28N 38°52' W 077°00'0 0.0
2018-Jun-14 17:55N 38°52' W 077°00'0 0.0
2018-Jun-14 17:30N 38°52' W 077°00'0 0.0
2018-Jun-14 16:58N 38°52' W 077°00'0 0.0
2018-Jun-14 16:30N 38°52' W 077°00'0 0.0
2018-Jun-14 16:00N 38°52' W 077°00'0 0.0
2018-Jun-14 15:26N 38°52' W 077°00'0 0.0
2018-Jun-14 14:57N 38°52' W 077°00'0 0.0
2018-Jun-14 14:27N 38°52' W 077°00'0 0.0
2018-Jun-14 13:57N 38°52' W 077°00'0 0.0
2018-Jun-14 13:27N 38°52' W 077°00'0 0.0
2018-Jun-14 12:58N 38°52' W 077°00'0 0.0
2018-Jun-14 12:29N 38°52' W 077°00'0 0.0
2018-Jun-14 12:00N 38°52' W 077°00'0 0.0
2018-Jun-14 11:26N 38°52' W 077°00'1 1.1
2018-Jun-14 10:50N 38°52' W 077°01'2 5.7
2018-Jun-14 10:30N 38°50' W 077°02'4 7.1
2018-Jun-14 09:58N 38°46' W 077°02'4 7.3
2018-Jun-14 09:27N 38°42' W 077°03'4 7.6
2018-Jun-14 08:58N 38°41' W 077°07'4 7.4
2018-Jun-14 08:27N 38°37' W 077°08'40 4.3
2018-Jun-13 23:17N 38°08' W 076°34'2 6.3
2018-Jun-13 23:00N 38°07' W 076°32'3 6.1
2018-Jun-13 22:30N 38°05' W 076°29'3 5.9
2018-Jun-13 22:00N 38°03' W 076°26'4 6.2
2018-Jun-13 21:25N 38°02' W 076°22'3 5.6
2018-Jun-13 20:54N 38°02' W 076°18'50 7.0
2018-Jun-13 13:50N 38°51' W 076°26'2 7.4
2018-Jun-13 13:30N 38°53' W 076°25'4 7.3
2018-Jun-13 12:54N 38°57' W 076°24'9 7.0
2018-Jun-13 11:41N 39°06' W 076°24'5 6.7
2018-Jun-13 10:53N 39°11' W 076°27'3 7.1
2018-Jun-13 10:30N 39°12' W 076°30'3 7.0
2018-Jun-13 10:00N 39°14' W 076°33'1 2.3
2018-Jun-13 09:30N 39°15' W 076°34'0 0.0
2018-Jun-13 09:00N 39°15' W 076°34'0 0.1
2018-Jun-13 08:30N 39°15' W 076°34'0 0.0
2018-Jun-13 08:00N 39°15' W 076°34'0 0.0
2018-Jun-13 07:30N 39°15' W 076°34'0 0.0
2018-Jun-13 07:00N 39°15' W 076°34'0 0.0
2018-Jun-13 06:30N 39°15' W 076°34'0 0.0
2018-Jun-13 06:00N 39°15' W 076°34'0 0.0
2018-Jun-13 05:30N 39°15' W 076°34'0 0.0
2018-Jun-13 05:00N 39°15' W 076°34'0 0.0
2018-Jun-13 04:30N 39°15' W 076°34'0 0.0
2018-Jun-13 04:00N 39°15' W 076°34'0 0.0
2018-Jun-13 03:30N 39°15' W 076°34'0 0.0
2018-Jun-13 03:00N 39°15' W 076°34'0 0.0
2018-Jun-13 02:30N 39°15' W 076°34'0 0.0
2018-Jun-13 02:00N 39°15' W 076°34'0 0.0
2018-Jun-13 01:30N 39°15' W 076°34'0 0.0
2018-Jun-13 01:00N 39°15' W 076°34'0 0.0
2018-Jun-13 00:30N 39°15' W 076°34'0 0.0
2018-Jun-13 00:00N 39°15' W 076°34'0 0.0
2018-Jun-12 23:30N 39°15' W 076°34'0 0.0
2018-Jun-12 23:00N 39°15' W 076°34'0 0.0
2018-Jun-12 22:30N 39°15' W 076°34'0 0.0
2018-Jun-12 22:00N 39°15' W 076°34'0 0.0
2018-Jun-12 21:30N 39°15' W 076°34'0 0.1
2018-Jun-12 21:00N 39°15' W 076°34'3 6.0
2018-Jun-12 20:30N 39°13' W 076°32'4 8.0
2018-Jun-12 20:00N 39°11' W 076°27'14 7.7
2018-Jun-12 18:10N 39°19' W 076°12'3 9.2
2018-Jun-12 17:52N 39°21' W 076°09'3 9.3
2018-Jun-12 17:29N 39°23' W 076°06'4 8.8
2018-Jun-12 17:00N 39°26' W 076°01'4 8.7
2018-Jun-12 16:30N 39°29' W 075°57'4 8.5
2018-Jun-12 16:00N 39°31' W 075°53'4 8.2
2018-Jun-12 15:30N 39°32' W 075°48'4 7.9
2018-Jun-12 15:00N 39°33' W 075°43'4 7.2
2018-Jun-12 14:30N 39°33' W 075°38'4 7.1
2018-Jun-12 14:00N 39°34' W 075°33'3 5.3
2018-Jun-12 13:30N 39°36' W 075°34'3 5.1
2018-Jun-12 13:00N 39°39' W 075°33'3 6.5
2018-Jun-12 12:30N 39°41' W 075°31'3 7.0
2018-Jun-12 12:01N 39°45' W 075°30'4 7.8
2018-Jun-12 11:30N 39°48' W 075°26'5 9.1
2018-Jun-12 11:00N 39°50' W 075°21'5 9.3
2018-Jun-12 10:31N 39°51' W 075°15'5 9.1
2018-Jun-12 10:00N 39°53' W 075°10'4 7.6
2018-Jun-12 09:31N 39°56' W 075°08'4 8.7
2018-Jun-12 09:00N 39°59' W 075°04'4 8.9
2018-Jun-12 08:30N 40°02' W 074°60'5 9.1
2018-Jun-12 08:00N 40°04' W 074°54'1 2.9
2018-Jun-12 07:30N 40°05' W 074°52'0 0.0
2018-Jun-12 06:57N 40°05' W 074°52'0 0.0
2018-Jun-12 04:56N 40°05' W 074°52'0 0.0
2018-Jun-12 04:29N 40°05' W 074°52'0 0.0
2018-Jun-12 02:00N 40°05' W 074°52'0 0.0
2018-Jun-12 01:29N 40°05' W 074°52'0 0.0
2018-Jun-12 01:01N 40°05' W 074°52'0 0.0
2018-Jun-11 22:28N 40°05' W 074°52'0 0.0
2018-Jun-11 21:59N 40°05' W 074°52'0 0.0
2018-Jun-11 21:30N 40°05' W 074°52'0 0.0
2018-Jun-11 20:59N 40°05' W 074°52'0 0.0
2018-Jun-11 20:30N 40°05' W 074°52'0 0.0
2018-Jun-11 20:00N 40°05' W 074°52'0 0.0
2018-Jun-11 19:30N 40°05' W 074°52'0 0.0
2018-Jun-11 19:00N 40°05' W 074°52'0 0.0
2018-Jun-11 18:30N 40°05' W 074°52'0 0.0
2018-Jun-11 18:00N 40°05' W 074°52'0 0.0
2018-Jun-11 17:28N 40°05' W 074°52'1 2.2
2018-Jun-11 17:01N 40°05' W 074°54'3 5.0
2018-Jun-11 16:30N 40°04' W 074°57'3 5.5
2018-Jun-11 16:00N 40°02' W 074°60'3 6.1
2018-Jun-11 15:30N 40°00' W 075°03'4 7.5
2018-Jun-11 15:01N 39°58' W 075°07'3 4.9
2018-Jun-11 14:30N 39°56' W 075°08'0 0.0
2018-Jun-11 14:00N 39°56' W 075°08'0 0.0
2018-Jun-11 13:30N 39°56' W 075°08'0 0.0
2018-Jun-11 13:00N 39°56' W 075°08'0 0.0
2018-Jun-11 12:30N 39°56' W 075°08'0 0.3
2018-Jun-11 11:59N 39°56' W 075°08'0 0.3
2018-Jun-11 11:30N 39°56' W 075°08'0 0.0
2018-Jun-11 11:00N 39°56' W 075°08'0 0.0
2018-Jun-11 10:30N 39°56' W 075°08'0 0.0
2018-Jun-11 10:00N 39°56' W 075°08'0 0.0
2018-Jun-11 09:31N 39°56' W 075°08'0 0.0
2018-Jun-11 09:00N 39°56' W 075°08'0 0.0
2018-Jun-11 08:30N 39°56' W 075°08'0 0.0
2018-Jun-11 08:00N 39°56' W 075°08'0 0.0
2018-Jun-11 07:31N 39°56' W 075°08'0 0.0
2018-Jun-11 07:00N 39°56' W 075°08'0 0.0
2018-Jun-11 06:29N 39°56' W 075°08'0 0.0
2018-Jun-11 06:00N 39°56' W 075°08'0 0.0
2018-Jun-11 05:31N 39°56' W 075°08'0 0.1
2018-Jun-11 05:01N 39°56' W 075°08'0 0.3
2018-Jun-11 04:30N 39°56' W 075°08'0 0.0
2018-Jun-11 04:00N 39°56' W 075°08'0 0.0
2018-Jun-11 03:30N 39°56' W 075°08'0 0.0
2018-Jun-11 03:00N 39°56' W 075°08'0 0.0
2018-Jun-11 02:27N 39°56' W 075°08'0 0.0
2018-Jun-11 01:55N 39°56' W 075°08'0 0.0
2018-Jun-11 01:27N 39°56' W 075°08'0 0.0
2018-Jun-11 01:00N 39°56' W 075°08'0 0.1
2018-Jun-11 00:28N 39°56' W 075°08'0 0.1
2018-Jun-10 23:58N 39°56' W 075°08'0 0.3
2018-Jun-10 23:25N 39°56' W 075°08'0 0.0
2018-Jun-10 22:53N 39°56' W 075°08'0 0.0
2018-Jun-10 22:27N 39°56' W 075°08'0 0.0
2018-Jun-10 21:56N 39°56' W 075°08'0 0.0
2018-Jun-10 21:30N 39°56' W 075°08'0 0.0
2018-Jun-10 20:55N 39°56' W 075°08'0 0.0
2018-Jun-10 20:26N 39°56' W 075°08'0 0.0
2018-Jun-10 19:59N 39°56' W 075°08'0 0.0
2018-Jun-10 19:25N 39°56' W 075°08'0 0.0
2018-Jun-10 18:58N 39°56' W 075°08'1 1.6
2018-Jun-10 18:24N 39°55' W 075°08'0 0.1
2018-Jun-10 17:58N 39°55' W 075°08'0 0.1
2018-Jun-10 17:28N 39°55' W 075°08'0 0.2
2018-Jun-10 16:51N 39°55' W 075°08'0 0.2
2018-Jun-10 16:24N 39°55' W 075°08'0 0.0
2018-Jun-10 15:54N 39°55' W 075°08'0 0.0
2018-Jun-10 15:28N 39°55' W 075°08'0 0.0
2018-Jun-10 14:56N 39°55' W 075°08'4 4.2
2018-Jun-10 13:59N 39°53' W 075°12'710.9
2018-Jun-10 13:22N 39°51' W 075°20'4 9.0
2018-Jun-10 12:56N 39°48' W 075°24'2 4.4
2018-Jun-10 12:30N 39°48' W 075°27'5 9.7
2018-Jun-10 11:59N 39°43' W 075°30'0 0.3
2018-Jun-10 11:29N 39°43' W 075°30'4 8.6
2018-Jun-10 11:00N 39°39' W 075°32'4 7.5
2018-Jun-10 10:30N 39°36' W 075°34'3 5.4
2018-Jun-10 10:00N 39°33' W 075°35'4 8.1
2018-Jun-10 09:30N 39°33' W 075°40'1218.1
2018-Jun-10 08:51N 39°30' W 075°55'2 4.3
2018-Jun-10 08:30N 39°29' W 075°57'2 3.7
2018-Jun-10 07:59N 39°28' W 075°59'4 8.1
2018-Jun-10 07:26N 39°25' W 076°03'4 7.5
2018-Jun-10 06:58N 39°23' W 076°07'15 6.8
2018-Jun-10 04:47N 39°11' W 076°17'1 1.8
2018-Jun-10 04:27N 39°11' W 076°17'7 5.6
2018-Jun-10 03:09N 39°11' W 076°26'1 6.4
2018-Jun-10 02:58N 39°11' W 076°28'3 6.5
2018-Jun-10 02:30N 39°13' W 076°31'3 6.6
2018-Jun-10 02:00N 39°15' W 076°34'0 0.8
2018-Jun-10 01:30N 39°15' W 076°34'0 0.1
2018-Jun-10 01:00N 39°15' W 076°34'0 0.0
2018-Jun-10 00:30N 39°15' W 076°34'0 0.0
2018-Jun-10 00:00N 39°15' W 076°34'0 0.0
2018-Jun-09 23:30N 39°15' W 076°34'0 0.0
2018-Jun-09 23:00N 39°15' W 076°34'0 0.0
2018-Jun-09 22:30N 39°15' W 076°34'0 0.0
2018-Jun-09 22:00N 39°15' W 076°34'0 0.7
2018-Jun-09 21:30N 39°15' W 076°34'0 0.2
2018-Jun-09 21:00N 39°15' W 076°34'0 0.0
2018-Jun-09 20:30N 39°15' W 076°34'0 0.5
2018-Jun-09 20:00N 39°15' W 076°34'0 0.4
2018-Jun-09 19:30N 39°15' W 076°34'0 0.0
2018-Jun-09 19:00N 39°15' W 076°34'0 0.0
2018-Jun-09 18:30N 39°15' W 076°34'0 0.0
2018-Jun-09 18:00N 39°15' W 076°34'0 0.0
2018-Jun-09 17:30N 39°15' W 076°34'0 0.0
2018-Jun-09 16:58N 39°15' W 076°34'0 0.0
2018-Jun-09 16:30N 39°15' W 076°34'0 0.0
2018-Jun-09 16:00N 39°15' W 076°34'0 0.0
2018-Jun-09 15:30N 39°15' W 076°34'0 0.0
2018-Jun-09 14:30N 39°15' W 076°34'0 0.0
2018-Jun-09 14:00N 39°15' W 076°34'0 0.0
2018-Jun-09 13:30N 39°15' W 076°34'0 0.0
2018-Jun-09 13:00N 39°15' W 076°34'0 0.0
2018-Jun-09 12:30N 39°15' W 076°34'0 0.0
2018-Jun-09 12:00N 39°15' W 076°34'0 0.0
2018-Jun-09 11:30N 39°15' W 076°34'0 0.0
2018-Jun-09 11:00N 39°15' W 076°34'0 0.0
2018-Jun-09 10:30N 39°15' W 076°34'0 0.0
2018-Jun-09 10:00N 39°15' W 076°34'0 0.0
2018-Jun-09 09:30N 39°15' W 076°34'0 0.6
2018-Jun-09 09:00N 39°15' W 076°34'0 0.0
2018-Jun-09 08:30N 39°15' W 076°34'0 0.0
2018-Jun-09 08:00N 39°15' W 076°34'0 0.0
2018-Jun-09 07:30N 39°15' W 076°34'0 0.0
2018-Jun-09 07:00N 39°15' W 076°34'0 0.0
2018-Jun-09 06:30N 39°15' W 076°34'0 0.0
2018-Jun-09 06:00N 39°15' W 076°34'0 0.0
2018-Jun-09 05:30N 39°15' W 076°34'0 0.0
2018-Jun-09 05:00N 39°15' W 076°34'0 0.0
2018-Jun-09 04:30N 39°15' W 076°34'0 0.0
2018-Jun-09 04:00N 39°15' W 076°34'0 0.0
2018-Jun-09 03:30N 39°15' W 076°34'0 0.0
2018-Jun-09 03:00N 39°15' W 076°34'0 0.0
2018-Jun-09 02:30N 39°15' W 076°34'0 0.0
2018-Jun-09 02:00N 39°15' W 076°34'0 0.0
2018-Jun-09 01:30N 39°15' W 076°34'0 0.0
2018-Jun-09 01:00N 39°15' W 076°34'0 0.0
2018-Jun-09 00:30N 39°15' W 076°34'0 0.5
2018-Jun-09 00:00N 39°15' W 076°34'0 0.3
2018-Jun-08 23:30N 39°15' W 076°34'3 6.6
2018-Jun-08 23:00N 39°12' W 076°31'4 7.8
2018-Jun-08 22:29N 39°11' W 076°26'4 7.5
2018-Jun-08 22:00N 39°08' W 076°24'4 7.6
2018-Jun-08 21:30N 39°04' W 076°23'4 7.4
2018-Jun-08 21:00N 39°00' W 076°23'4 7.9
2018-Jun-08 20:30N 38°56' W 076°24'4 8.0
2018-Jun-08 20:00N 38°52' W 076°25'4 8.2
2018-Jun-08 19:30N 38°48' W 076°26'40 7.9
2018-Jun-08 14:24N 38°09' W 076°17'5 8.1
2018-Jun-08 13:44N 38°03' W 076°17'2 7.9
2018-Jun-08 13:30N 38°02' W 076°18'3 6.9
2018-Jun-08 13:00N 38°02' W 076°23'4 7.6
2018-Jun-08 12:30N 38°04' W 076°27'4 7.6
2018-Jun-08 12:00N 38°06' W 076°31'4 7.8
2018-Jun-08 11:31N 38°09' W 076°35'39 5.2
2018-Jun-08 04:00N 38°37' W 077°08'5 6.3
2018-Jun-08 03:11N 38°42' W 077°04'2 7.2
2018-Jun-08 02:51N 38°43' W 077°02'3 8.4
2018-Jun-08 02:30N 38°46' W 077°02'4 8.3
2018-Jun-08 01:59N 38°51' W 077°01'2 3.4
2018-Jun-08 01:30N 38°52' W 077°00'0 0.0
2018-Jun-08 00:56N 38°52' W 077°00'0 0.0
2018-Jun-08 00:28N 38°52' W 077°00'0 0.0
2018-Jun-07 23:58N 38°52' W 077°00'0 0.0
2018-Jun-07 23:31N 38°52' W 077°00'0 0.0
2018-Jun-07 22:58N 38°52' W 077°00'0 0.0
2018-Jun-07 22:30N 38°52' W 077°00'  
Track history (hours):
 
Tides and Currents Weather Stations Pressure Air Temp Water Temp Dewpoint Dewpoint Depression Visibility Wind Speed Wind Dir Waves Ship Positions

Crystal Coast

Owner: Dann Marine Towing, LC, Chesapeake City, MD. More information available from US FCC via Universal Licensing System and Coast Guard Vessel Documentation Center.

Last reported at 2018-Jun-17 21:59 UTC. Time now 2018-Jun-18 01:39 UTC.
Position N 39°32' W 075°44'.

Length 22 m; draft 2.9 m.

Type: Tug. MMSI: 36797970.

Date/timePositionNaut miles runAvg speedWind from/ knotsBaromVisibWave heightAir tempDewpointWater temp
2018-Jun-17 21:59N 39°32' W 075°44'4 9.0
2018-Jun-17 21:30N 39°33' W 075°39'4 8.6
2018-Jun-17 21:00N 39°34' W 075°33'4 7.4
2018-Jun-17 20:30N 39°30' W 075°34'4 7.6
2018-Jun-17 20:00N 39°26' W 075°33'16 2.7
2018-Jun-17 13:58N 39°11' W 075°24'0 0.0
2018-Jun-17 13:29N 39°11' W 075°24'0 0.0
2018-Jun-17 13:01N 39°11' W 075°24'0 0.0
2018-Jun-17 12:30N 39°11' W 075°24'0 0.0
2018-Jun-17 12:00N 39°11' W 075°24'0 0.0
2018-Jun-17 11:30N 39°11' W 075°24'0 0.0
2018-Jun-17 10:59N 39°11' W 075°24'5 0.6
2018-Jun-17 02:33N 39°15' W 075°21'0 3.8
2018-Jun-17 02:30N 39°15' W 075°21'1 2.7
2018-Jun-17 02:00N 39°16' W 075°22'2 3.2
2018-Jun-17 01:30N 39°18' W 075°23'2 3.5
2018-Jun-17 01:00N 39°19' W 075°24'4 7.5
2018-Jun-17 00:30N 39°22' W 075°28'5 9.0
2018-Jun-17 00:00N 39°25' W 075°31'4 8.4
2018-Jun-16 23:30N 39°29' W 075°34'5 8.9
2018-Jun-16 23:00N 39°33' W 075°33'3 6.8
2018-Jun-16 22:30N 39°33' W 075°37'4 6.3
2018-Jun-16 21:56N 39°33' W 075°42'37 5.8
2018-Jun-16 15:38N 39°13' W 076°22'1 7.0
2018-Jun-16 15:30N 39°12' W 076°23'4 6.4
2018-Jun-16 14:49N 39°11' W 076°29'2 6.9
2018-Jun-16 14:30N 39°12' W 076°31'3 6.9
2018-Jun-16 14:00N 39°15' W 076°34'0 0.6
2018-Jun-16 13:29N 39°15' W 076°34'0 0.0
2018-Jun-16 13:00N 39°15' W 076°34'0 0.0
2018-Jun-16 12:30N 39°15' W 076°34'0 0.6
2018-Jun-16 12:00N 39°15' W 076°34'0 0.0
2018-Jun-16 11:30N 39°15' W 076°34'0 0.0
2018-Jun-16 11:00N 39°15' W 076°34'0 0.6
2018-Jun-16 10:30N 39°15' W 076°34'0 0.0
2018-Jun-16 10:00N 39°15' W 076°34'0 0.0
2018-Jun-16 09:30N 39°15' W 076°34'0 0.0
2018-Jun-16 09:00N 39°15' W 076°34'0 0.0
2018-Jun-16 08:30N 39°15' W 076°34'0 0.0
2018-Jun-16 08:00N 39°15' W 076°34'0 0.0
2018-Jun-16 07:30N 39°15' W 076°34'0 0.0
2018-Jun-16 07:00N 39°15' W 076°34'0 0.0
2018-Jun-16 06:30N 39°15' W 076°34'0 0.6
2018-Jun-16 06:00N 39°15' W 076°34'0 0.0
2018-Jun-16 05:30N 39°15' W 076°34'0 0.0
2018-Jun-16 05:00N 39°15' W 076°34'0 0.0
2018-Jun-16 04:30N 39°15' W 076°34'1 1.2
2018-Jun-16 04:00N 39°15' W 076°33'4 7.7
2018-Jun-16 03:30N 39°12' W 076°30'4 7.8
2018-Jun-16 03:00N 39°10' W 076°26'4 7.8
2018-Jun-16 02:30N 39°07' W 076°24'4 7.9
2018-Jun-16 01:59N 39°03' W 076°23'4 7.7
2018-Jun-16 01:29N 38°59' W 076°23'4 8.0
2018-Jun-16 01:00N 38°55' W 076°24'4 7.6
2018-Jun-16 00:30N 38°51' W 076°26'43 7.7
2018-Jun-15 18:57N 38°09' W 076°17'5 8.0
2018-Jun-15 18:20N 38°04' W 076°17'2 7.1
2018-Jun-15 17:59N 38°02' W 076°18'3 6.6
2018-Jun-15 17:29N 38°02' W 076°23'4 7.7
2018-Jun-15 16:55N 38°04' W 076°27'46 5.4
2018-Jun-15 08:25N 38°37' W 077°09'3 6.9
2018-Jun-15 07:59N 38°40' W 077°08'4 7.7
2018-Jun-15 07:30N 38°42' W 077°04'4 7.8
2018-Jun-15 06:57N 38°46' W 077°02'5 8.9
2018-Jun-15 06:24N 38°51' W 077°01'1 3.7
2018-Jun-15 06:00N 38°52' W 077°00'0 0.0
2018-Jun-15 05:26N 38°52' W 077°00'0 0.0
2018-Jun-15 04:57N 38°52' W 077°00'0 0.0
2018-Jun-15 04:28N 38°52' W 077°00'0 0.0
2018-Jun-15 03:59N 38°52' W 077°00'0 0.0
2018-Jun-15 03:27N 38°52' W 077°00'0 0.0
2018-Jun-15 03:00N 38°52' W 077°00'0 0.0
2018-Jun-15 02:25N 38°52' W 077°00'0 0.0
2018-Jun-15 02:00N 38°52' W 077°00'0 0.0
2018-Jun-15 01:30N 38°52' W 077°00'0 0.0
2018-Jun-15 00:58N 38°52' W 077°00'0 0.0
2018-Jun-15 00:29N 38°52' W 077°00'0 0.0
2018-Jun-14 23:59N 38°52' W 077°00'0 0.0
2018-Jun-14 23:28N 38°52' W 077°00'0 0.0
2018-Jun-14 23:00N 38°52' W 077°00'0 0.0
2018-Jun-14 22:26N 38°52' W 077°00'0 0.0
2018-Jun-14 21:59N 38°52' W 077°00'0 0.0
2018-Jun-14 21:30N 38°52' W 077°00'0 0.0
2018-Jun-14 20:58N 38°52' W 077°00'0 0.0
2018-Jun-14 20:27N 38°52' W 077°00'0 0.0
2018-Jun-14 19:57N 38°52' W 077°00'0 0.0
2018-Jun-14 19:28N 38°52' W 077°00'0 0.0
2018-Jun-14 18:58N 38°52' W 077°00'0 0.0
2018-Jun-14 18:28N 38°52' W 077°00'0 0.0
2018-Jun-14 17:55N 38°52' W 077°00'0 0.0
2018-Jun-14 17:30N 38°52' W 077°00'0 0.0
2018-Jun-14 16:58N 38°52' W 077°00'0 0.0
2018-Jun-14 16:30N 38°52' W 077°00'0 0.0
2018-Jun-14 16:00N 38°52' W 077°00'0 0.0
2018-Jun-14 15:26N 38°52' W 077°00'0 0.0
2018-Jun-14 14:57N 38°52' W 077°00'0 0.0
2018-Jun-14 14:27N 38°52' W 077°00'0 0.0
2018-Jun-14 13:57N 38°52' W 077°00'0 0.0
2018-Jun-14 13:27N 38°52' W 077°00'0 0.0
2018-Jun-14 12:58N 38°52' W 077°00'0 0.0
2018-Jun-14 12:29N 38°52' W 077°00'0 0.0
2018-Jun-14 12:00N 38°52' W 077°00'0 0.0
2018-Jun-14 11:26N 38°52' W 077°00'1 1.1
2018-Jun-14 10:50N 38°52' W 077°01'2 5.7
2018-Jun-14 10:30N 38°50' W 077°02'4 7.1
2018-Jun-14 09:58N 38°46' W 077°02'4 7.3
2018-Jun-14 09:27N 38°42' W 077°03'4 7.6
2018-Jun-14 08:58N 38°41' W 077°07'4 7.4
2018-Jun-14 08:27N 38°37' W 077°08'40 4.3
2018-Jun-13 23:17N 38°08' W 076°34'2 6.3
2018-Jun-13 23:00N 38°07' W 076°32'3 6.1
2018-Jun-13 22:30N 38°05' W 076°29'3 5.9
2018-Jun-13 22:00N 38°03' W 076°26'4 6.2
2018-Jun-13 21:25N 38°02' W 076°22'3 5.6
2018-Jun-13 20:54N 38°02' W 076°18'50 7.0
2018-Jun-13 13:50N 38°51' W 076°26'2 7.4
2018-Jun-13 13:30N 38°53' W 076°25'4 7.3
2018-Jun-13 12:54N 38°57' W 076°24'9 7.0
2018-Jun-13 11:41N 39°06' W 076°24'5 6.7
2018-Jun-13 10:53N 39°11' W 076°27'3 7.1
2018-Jun-13 10:30N 39°12' W 076°30'3 7.0
2018-Jun-13 10:00N 39°14' W 076°33'1 2.3
2018-Jun-13 09:30N 39°15' W 076°34'0 0.0
2018-Jun-13 09:00N 39°15' W 076°34'0 0.1
2018-Jun-13 08:30N 39°15' W 076°34'0 0.0
2018-Jun-13 08:00N 39°15' W 076°34'0 0.0
2018-Jun-13 07:30N 39°15' W 076°34'0 0.0
2018-Jun-13 07:00N 39°15' W 076°34'0 0.0
2018-Jun-13 06:30N 39°15' W 076°34'0 0.0
2018-Jun-13 06:00N 39°15' W 076°34'0 0.0
2018-Jun-13 05:30N 39°15' W 076°34'0 0.0
2018-Jun-13 05:00N 39°15' W 076°34'0 0.0
2018-Jun-13 04:30N 39°15' W 076°34'0 0.0
2018-Jun-13 04:00N 39°15' W 076°34'0 0.0
2018-Jun-13 03:30N 39°15' W 076°34'0 0.0
2018-Jun-13 03:00N 39°15' W 076°34'0 0.0
2018-Jun-13 02:30N 39°15' W 076°34'0 0.0
2018-Jun-13 02:00N 39°15' W 076°34'0 0.0
2018-Jun-13 01:30N 39°15' W 076°34'0 0.0
2018-Jun-13 01:00N 39°15' W 076°34'0 0.0
2018-Jun-13 00:30N 39°15' W 076°34'0 0.0
2018-Jun-13 00:00N 39°15' W 076°34'0 0.0
2018-Jun-12 23:30N 39°15' W 076°34'0 0.0
2018-Jun-12 23:00N 39°15' W 076°34'0 0.0
2018-Jun-12 22:30N 39°15' W 076°34'0 0.0
2018-Jun-12 22:00N 39°15' W 076°34'0 0.0
2018-Jun-12 21:30N 39°15' W 076°34'0 0.1
2018-Jun-12 21:00N 39°15' W 076°34'3 6.0
2018-Jun-12 20:30N 39°13' W 076°32'4 8.0
2018-Jun-12 20:00N 39°11' W 076°27'14 7.7
2018-Jun-12 18:10N 39°19' W 076°12'3 9.2
2018-Jun-12 17:52N 39°21' W 076°09'3 9.3
2018-Jun-12 17:29N 39°23' W 076°06'4 8.8
2018-Jun-12 17:00N 39°26' W 076°01'4 8.7
2018-Jun-12 16:30N 39°29' W 075°57'4 8.5
2018-Jun-12 16:00N 39°31' W 075°53'4 8.2
2018-Jun-12 15:30N 39°32' W 075°48'4 7.9
2018-Jun-12 15:00N 39°33' W 075°43'4 7.2
2018-Jun-12 14:30N 39°33' W 075°38'4 7.1
2018-Jun-12 14:00N 39°34' W 075°33'3 5.3
2018-Jun-12 13:30N 39°36' W 075°34'3 5.1
2018-Jun-12 13:00N 39°39' W 075°33'3 6.5
2018-Jun-12 12:30N 39°41' W 075°31'3 7.0
2018-Jun-12 12:01N 39°45' W 075°30'4 7.8
2018-Jun-12 11:30N 39°48' W 075°26'5 9.1
2018-Jun-12 11:00N 39°50' W 075°21'5 9.3
2018-Jun-12 10:31N 39°51' W 075°15'5 9.1
2018-Jun-12 10:00N 39°53' W 075°10'4 7.6
2018-Jun-12 09:31N 39°56' W 075°08'4 8.7
2018-Jun-12 09:00N 39°59' W 075°04'4 8.9
2018-Jun-12 08:30N 40°02' W 074°60'5 9.1
2018-Jun-12 08:00N 40°04' W 074°54'1 2.9
2018-Jun-12 07:30N 40°05' W 074°52'0 0.0
2018-Jun-12 06:57N 40°05' W 074°52'0 0.0
2018-Jun-12 04:56N 40°05' W 074°52'0 0.0
2018-Jun-12 04:29N 40°05' W 074°52'0 0.0
2018-Jun-12 02:00N 40°05' W 074°52'0 0.0
2018-Jun-12 01:29N 40°05' W 074°52'0 0.0
2018-Jun-12 01:01N 40°05' W 074°52'0 0.0
2018-Jun-11 22:28N 40°05' W 074°52'0 0.0
2018-Jun-11 21:59N 40°05' W 074°52'0 0.0
2018-Jun-11 21:30N 40°05' W 074°52'0 0.0
2018-Jun-11 20:59N 40°05' W 074°52'0 0.0
2018-Jun-11 20:30N 40°05' W 074°52'0 0.0
2018-Jun-11 20:00N 40°05' W 074°52'0 0.0
2018-Jun-11 19:30N 40°05' W 074°52'0 0.0
2018-Jun-11 19:00N 40°05' W 074°52'0 0.0
2018-Jun-11 18:30N 40°05' W 074°52'0 0.0
2018-Jun-11 18:00N 40°05' W 074°52'0 0.0
2018-Jun-11 17:28N 40°05' W 074°52'1 2.2
2018-Jun-11 17:01N 40°05' W 074°54'3 5.0
2018-Jun-11 16:30N 40°04' W 074°57'3 5.5
2018-Jun-11 16:00N 40°02' W 074°60'3 6.1
2018-Jun-11 15:30N 40°00' W 075°03'4 7.5
2018-Jun-11 15:01N 39°58' W 075°07'3 4.9
2018-Jun-11 14:30N 39°56' W 075°08'0 0.0
2018-Jun-11 14:00N 39°56' W 075°08'0 0.0
2018-Jun-11 13:30N 39°56' W 075°08'0 0.0
2018-Jun-11 13:00N 39°56' W 075°08'0 0.0
2018-Jun-11 12:30N 39°56' W 075°08'0 0.3
2018-Jun-11 11:59N 39°56' W 075°08'0 0.3
2018-Jun-11 11:30N 39°56' W 075°08'0 0.0
2018-Jun-11 11:00N 39°56' W 075°08'0 0.0
2018-Jun-11 10:30N 39°56' W 075°08'0 0.0
2018-Jun-11 10:00N 39°56' W 075°08'0 0.0
2018-Jun-11 09:31N 39°56' W 075°08'0 0.0
2018-Jun-11 09:00N 39°56' W 075°08'0 0.0
2018-Jun-11 08:30N 39°56' W 075°08'0 0.0
2018-Jun-11 08:00N 39°56' W 075°08'0 0.0
2018-Jun-11 07:31N 39°56' W 075°08'0 0.0
2018-Jun-11 07:00N 39°56' W 075°08'0 0.0
2018-Jun-11 06:29N 39°56' W 075°08'0 0.0
2018-Jun-11 06:00N 39°56' W 075°08'0 0.0
2018-Jun-11 05:31N 39°56' W 075°08'0 0.1
2018-Jun-11 05:01N 39°56' W 075°08'0 0.3
2018-Jun-11 04:30N 39°56' W 075°08'0 0.0
2018-Jun-11 04:00N 39°56' W 075°08'0 0.0
2018-Jun-11 03:30N 39°56' W 075°08'0 0.0
2018-Jun-11 03:00N 39°56' W 075°08'0 0.0
2018-Jun-11 02:27N 39°56' W 075°08'0 0.0
2018-Jun-11 01:55N 39°56' W 075°08'0 0.0
2018-Jun-11 01:27N 39°56' W 075°08'0 0.0
2018-Jun-11 01:00N 39°56' W 075°08'0 0.1
2018-Jun-11 00:28N 39°56' W 075°08'0 0.1
2018-Jun-10 23:58N 39°56' W 075°08'0 0.3
2018-Jun-10 23:25N 39°56' W 075°08'0 0.0
2018-Jun-10 22:53N 39°56' W 075°08'0 0.0
2018-Jun-10 22:27N 39°56' W 075°08'0 0.0
2018-Jun-10 21:56N 39°56' W 075°08'0 0.0
2018-Jun-10 21:30N 39°56' W 075°08'0 0.0
2018-Jun-10 20:55N 39°56' W 075°08'0 0.0
2018-Jun-10 20:26N 39°56' W 075°08'0 0.0
2018-Jun-10 19:59N 39°56' W 075°08'0 0.0
2018-Jun-10 19:25N 39°56' W 075°08'0 0.0
2018-Jun-10 18:58N 39°56' W 075°08'1 1.6
2018-Jun-10 18:24N 39°55' W 075°08'0 0.1
2018-Jun-10 17:58N 39°55' W 075°08'0 0.1
2018-Jun-10 17:28N 39°55' W 075°08'0 0.2
2018-Jun-10 16:51N 39°55' W 075°08'0 0.2
2018-Jun-10 16:24N 39°55' W 075°08'0 0.0
2018-Jun-10 15:54N 39°55' W 075°08'0 0.0
2018-Jun-10 15:28N 39°55' W 075°08'0 0.0
2018-Jun-10 14:56N 39°55' W 075°08'4 4.2
2018-Jun-10 13:59N 39°53' W 075°12'710.9
2018-Jun-10 13:22N 39°51' W 075°20'4 9.0
2018-Jun-10 12:56N 39°48' W 075°24'2 4.4
2018-Jun-10 12:30N 39°48' W 075°27'5 9.7
2018-Jun-10 11:59N 39°43' W 075°30'0 0.3
2018-Jun-10 11:29N 39°43' W 075°30'4 8.6
2018-Jun-10 11:00N 39°39' W 075°32'4 7.5
2018-Jun-10 10:30N 39°36' W 075°34'3 5.4
2018-Jun-10 10:00N 39°33' W 075°35'4 8.1
2018-Jun-10 09:30N 39°33' W 075°40'1218.1
2018-Jun-10 08:51N 39°30' W 075°55'2 4.3
2018-Jun-10 08:30N 39°29' W 075°57'2 3.7
2018-Jun-10 07:59N 39°28' W 075°59'4 8.1
2018-Jun-10 07:26N 39°25' W 076°03'4 7.5
2018-Jun-10 06:58N 39°23' W 076°07'15 6.8
2018-Jun-10 04:47N 39°11' W 076°17'1 1.8
2018-Jun-10 04:27N 39°11' W 076°17'7 5.6
2018-Jun-10 03:09N 39°11' W 076°26'1 6.4
2018-Jun-10 02:58N 39°11' W 076°28'3 6.5
2018-Jun-10 02:30N 39°13' W 076°31'3 6.6
2018-Jun-10 02:00N 39°15' W 076°34'0 0.8
2018-Jun-10 01:30N 39°15' W 076°34'0 0.1
2018-Jun-10 01:00N 39°15' W 076°34'0 0.0
2018-Jun-10 00:30N 39°15' W 076°34'0 0.0
2018-Jun-10 00:00N 39°15' W 076°34'0 0.0
2018-Jun-09 23:30N 39°15' W 076°34'0 0.0
2018-Jun-09 23:00N 39°15' W 076°34'0 0.0
2018-Jun-09 22:30N 39°15' W 076°34'0 0.0
2018-Jun-09 22:00N 39°15' W 076°34'0 0.7
2018-Jun-09 21:30N 39°15' W 076°34'0 0.2
2018-Jun-09 21:00N 39°15' W 076°34'0 0.0
2018-Jun-09 20:30N 39°15' W 076°34'0 0.5
2018-Jun-09 20:00N 39°15' W 076°34'0 0.4
2018-Jun-09 19:30N 39°15' W 076°34'0 0.0
2018-Jun-09 19:00N 39°15' W 076°34'0 0.0
2018-Jun-09 18:30N 39°15' W 076°34'0 0.0
2018-Jun-09 18:00N 39°15' W 076°34'0 0.0
2018-Jun-09 17:30N 39°15' W 076°34'0 0.0
2018-Jun-09 16:58N 39°15' W 076°34'0 0.0
2018-Jun-09 16:30N 39°15' W 076°34'0 0.0
2018-Jun-09 16:00N 39°15' W 076°34'0 0.0
2018-Jun-09 15:30N 39°15' W 076°34'0 0.0
2018-Jun-09 14:30N 39°15' W 076°34'0 0.0
2018-Jun-09 14:00N 39°15' W 076°34'0 0.0
2018-Jun-09 13:30N 39°15' W 076°34'0 0.0
2018-Jun-09 13:00N 39°15' W 076°34'0 0.0
2018-Jun-09 12:30N 39°15' W 076°34'0 0.0
2018-Jun-09 12:00N 39°15' W 076°34'0 0.0
2018-Jun-09 11:30N 39°15' W 076°34'0 0.0
2018-Jun-09 11:00N 39°15' W 076°34'0 0.0
2018-Jun-09 10:30N 39°15' W 076°34'0 0.0
2018-Jun-09 10:00N 39°15' W 076°34'0 0.0
2018-Jun-09 09:30N 39°15' W 076°34'0 0.6
2018-Jun-09 09:00N 39°15' W 076°34'0 0.0
2018-Jun-09 08:30N 39°15' W 076°34'0 0.0
2018-Jun-09 08:00N 39°15' W 076°34'0 0.0
2018-Jun-09 07:30N 39°15' W 076°34'0 0.0
2018-Jun-09 07:00N 39°15' W 076°34'0 0.0
2018-Jun-09 06:30N 39°15' W 076°34'0 0.0
2018-Jun-09 06:00N 39°15' W 076°34'0 0.0
2018-Jun-09 05:30N 39°15' W 076°34'0 0.0
2018-Jun-09 05:00N 39°15' W 076°34'0 0.0
2018-Jun-09 04:30N 39°15' W 076°34'0 0.0
2018-Jun-09 04:00N 39°15' W 076°34'0 0.0
2018-Jun-09 03:30N 39°15' W 076°34'0 0.0
2018-Jun-09 03:00N 39°15' W 076°34'0 0.0
2018-Jun-09 02:30N 39°15' W 076°34'0 0.0
2018-Jun-09 02:00N 39°15' W 076°34'0 0.0
2018-Jun-09 01:30N 39°15' W 076°34'0 0.0
2018-Jun-09 01:00N 39°15' W 076°34'0 0.0
2018-Jun-09 00:30N 39°15' W 076°34'0 0.5
2018-Jun-09 00:00N 39°15' W 076°34'0 0.3
2018-Jun-08 23:30N 39°15' W 076°34'3 6.6
2018-Jun-08 23:00N 39°12' W 076°31'4 7.8
2018-Jun-08 22:29N 39°11' W 076°26'4 7.5
2018-Jun-08 22:00N 39°08' W 076°24'4 7.6
2018-Jun-08 21:30N 39°04' W 076°23'4 7.4
2018-Jun-08 21:00N 39°00' W 076°23'4 7.9
2018-Jun-08 20:30N 38°56' W 076°24'4 8.0
2018-Jun-08 20:00N 38°52' W 076°25'4 8.2
2018-Jun-08 19:30N 38°48' W 076°26'40 7.9
2018-Jun-08 14:24N 38°09' W 076°17'5 8.1
2018-Jun-08 13:44N 38°03' W 076°17'2 7.9
2018-Jun-08 13:30N 38°02' W 076°18'3 6.9
2018-Jun-08 13:00N 38°02' W 076°23'4 7.6
2018-Jun-08 12:30N 38°04' W 076°27'4 7.6
2018-Jun-08 12:00N 38°06' W 076°31'4 7.8
2018-Jun-08 11:31N 38°09' W 076°35'39 5.2
2018-Jun-08 04:00N 38°37' W 077°08'5 6.3
2018-Jun-08 03:11N 38°42' W 077°04'2 7.2
2018-Jun-08 02:51N 38°43' W 077°02'3 8.4
2018-Jun-08 02:30N 38°46' W 077°02'4 8.3
2018-Jun-08 01:59N 38°51' W 077°01'2 3.4
2018-Jun-08 01:30N 38°52' W 077°00'0 0.0
2018-Jun-08 00:56N 38°52' W 077°00'0 0.0
2018-Jun-08 00:28N 38°52' W 077°00'0 0.0
2018-Jun-07 23:58N 38°52' W 077°00'0 0.0
2018-Jun-07 23:31N 38°52' W 077°00'0 0.0
2018-Jun-07 22:58N 38°52' W 077°00'0 0.0
2018-Jun-07 22:30N 38°52' W 077°00'  

Dump ship's entire track history